createdAt,value
2023-02-28T08:34:36.399Z,63.70
2023-02-28T08:38:47.523Z,63.60
2023-02-28T08:49:12.781Z,63.20
2023-02-28T08:53:15.918Z,62.60
2023-02-28T09:23:44.549Z,59.60
2023-02-28T09:27:51.617Z,59.40
2023-02-28T09:32:21.631Z,59.20
2023-02-28T09:36:41.596Z,59.40
2023-02-28T09:47:19.839Z,59.30
2023-02-28T09:51:50.681Z,59.60
2023-02-28T09:55:57.618Z,59.80
2023-02-28T10:00:24.461Z,59.00
2023-02-28T10:04:52.705Z,58.50
2023-02-28T10:09:04.603Z,57.90
2023-02-28T10:13:57.290Z,57.60
2023-02-28T10:18:09.896Z,57.30
2023-02-28T10:22:33.418Z,56.40
2023-02-28T10:26:37.636Z,55.00
2023-02-28T10:30:43.821Z,55.10
2023-02-28T10:35:07.736Z,54.90
2023-02-28T10:39:32.421Z,54.30
2023-02-28T10:43:38.825Z,54.50
2023-02-28T10:47:57.171Z,55.10
2023-02-28T10:52:27.368Z,55.00
2023-02-28T10:56:32.207Z,54.10
2023-02-28T11:01:33.711Z,53.80
2023-02-28T11:11:37.909Z,53.70
2023-02-28T11:16:09.493Z,53.60
2023-02-28T11:20:20.195Z,53.40
2023-02-28T11:24:51.346Z,53.60
2023-02-28T11:40:46.124Z,53.20
2023-02-28T11:44:56.202Z,52.70
2023-02-28T11:49:15.479Z,52.90
2023-02-28T11:53:32.334Z,53.20
2023-02-28T11:57:55.514Z,53.20
2023-02-28T12:02:07.052Z,53.40
2023-02-28T12:06:32.793Z,53.60
2023-02-28T12:10:46.407Z,53.30
2023-02-28T12:15:11.530Z,52.70
2023-02-28T12:19:23.320Z,53.40
2023-02-28T12:23:39.412Z,53.60
2023-02-28T12:27:47.871Z,53.40
2023-02-28T12:31:54.827Z,53.80
2023-02-28T12:36:05.107Z,53.70
2023-02-28T12:40:33.497Z,53.70
2023-02-28T12:44:38.524Z,53.70
2023-02-28T12:48:47.635Z,53.90
2023-02-28T12:53:02.942Z,54.20
2023-02-28T12:57:21.112Z,54.50
2023-02-28T13:01:44.913Z,54.70
2023-02-28T13:06:00.993Z,55.10
2023-02-28T13:10:07.487Z,55.30
2023-02-28T13:14:25.843Z,55.60
2023-02-28T13:18:31.564Z,55.60
2023-02-28T13:22:46.975Z,55.90
2023-02-28T13:26:50.227Z,55.50
2023-02-28T13:31:04.062Z,54.90
2023-02-28T13:35:09.011Z,54.90
2023-02-28T13:39:50.016Z,54.60
2023-02-28T13:44:20.388Z,54.80
2023-02-28T13:48:28.164Z,54.80
2023-02-28T13:52:57.405Z,54.30
2023-02-28T13:57:05.458Z,54.30
2023-02-28T14:01:13.711Z,54.20
2023-02-28T14:05:28.011Z,54.70
2023-02-28T14:09:36.683Z,54.90
2023-02-28T14:13:46.121Z,54.70
2023-02-28T14:17:52.354Z,54.60
2023-02-28T14:22:14.857Z,54.90
2023-02-28T14:26:40.288Z,54.90
2023-02-28T14:31:10.884Z,54.90
2023-02-28T14:41:03.532Z,54.90
2023-02-28T14:45:07.802Z,54.70
2023-02-28T14:49:16.466Z,55.00
2023-02-28T14:53:20.826Z,55.20
2023-02-28T14:57:33.685Z,55.30
2023-02-28T15:02:04.418Z,55.40
2023-02-28T15:06:16.319Z,55.60
2023-02-28T15:10:21.361Z,55.40
2023-02-28T15:14:29.211Z,55.60
2023-02-28T15:18:59.374Z,55.50
2023-02-28T15:23:07.517Z,55.80
2023-02-28T15:27:16.606Z,56.10
2023-02-28T15:31:21.925Z,56.50
2023-02-28T15:35:25.936Z,56.90
2023-02-28T15:39:30.411Z,57.20
2023-02-28T15:43:37.829Z,57.50
2023-02-28T15:47:46.935Z,57.80
2023-02-28T15:51:51.478Z,58.10
2023-02-28T15:55:56.445Z,58.50
2023-02-28T16:06:34.211Z,59.40
2023-02-28T16:10:37.838Z,60.00
2023-02-28T16:15:13.501Z,60.50
2023-02-28T16:19:16.702Z,60.80
2023-02-28T16:23:25.777Z,61.30
2023-02-28T16:28:01.671Z,61.70
2023-02-28T16:32:30.297Z,62.30
2023-02-28T16:36:36.681Z,62.60
2023-02-28T16:40:40.966Z,62.90
2023-02-28T16:44:44.187Z,63.10
2023-02-28T16:49:14.221Z,63.40
2023-02-28T16:53:27.730Z,63.50
2023-02-28T16:57:33.062Z,63.80
2023-02-28T17:01:40.859Z,64.10
2023-02-28T17:05:47.863Z,64.20
2023-02-28T17:10:17.349Z,64.30
2023-02-28T17:15:15.581Z,64.30
2023-02-28T17:19:47.763Z,64.30
2023-02-28T17:23:57.147Z,64.50
2023-02-28T17:28:37.546Z,64.60
2023-02-28T17:39:31.138Z,64.60
2023-02-28T17:56:30.869Z,64.70
2023-02-28T18:00:34.653Z,64.80
2023-02-28T18:04:37.680Z,65.00
2023-02-28T18:08:40.338Z,65.00
2023-02-28T18:12:50.055Z,65.00
2023-02-28T18:16:54.299Z,65.00
2023-02-28T18:20:57.040Z,65.00
2023-02-28T18:24:59.647Z,65.00
2023-02-28T18:29:02.201Z,65.10
2023-02-28T18:33:05.002Z,65.10
2023-02-28T18:37:07.618Z,65.10
2023-02-28T18:41:10.260Z,65.10
2023-02-28T18:45:12.820Z,65.20
2023-02-28T18:49:15.483Z,65.20
2023-02-28T18:53:19.158Z,65.20
2023-02-28T18:57:22.043Z,65.30
2023-02-28T19:01:29.873Z,65.30
2023-02-28T19:05:34.586Z,65.30
2023-02-28T19:09:37.333Z,65.30
2023-02-28T19:13:40.646Z,65.30
2023-02-28T19:17:43.191Z,65.40
2023-02-28T19:21:46.118Z,65.40
2023-02-28T19:25:48.751Z,65.40
2023-02-28T19:29:51.918Z,65.50
2023-02-28T19:33:57.260Z,65.60
2023-02-28T19:38:01.140Z,65.60
2023-02-28T19:42:04.162Z,65.70
2023-02-28T19:46:07.121Z,65.70
2023-02-28T19:50:10.222Z,65.70
2023-02-28T19:54:12.890Z,65.70
2023-02-28T19:58:15.488Z,65.60
2023-02-28T20:02:19.330Z,65.50
2023-02-28T20:06:21.998Z,65.50
2023-02-28T20:10:25.020Z,65.50
2023-02-28T20:14:27.872Z,65.50
2023-02-28T20:18:30.707Z,65.50
2023-02-28T20:22:33.649Z,65.60
2023-02-28T20:26:37.430Z,65.70
2023-02-28T20:30:43.603Z,65.90
2023-02-28T21:44:25.318Z,66.60
2023-02-28T23:54:25.198Z,68.30
